Terminal Aerodrome Forecast
Issued by NWS Louisville, KY

Home | Current Version | Previous Version | Graphics & Text | Print | Product List | Glossary On
Versions: 1 2 3 4 5 6 7 8 9 10 11 12 13 14 15 16
291
FTUS43 KLMK 231445 AAA
TAFBWG
TAF AMD
KBWG 231445Z 2315/2412 11008KT P6SM VCSH SCT090 BKN250
     FM231900 18010KT P6SM BKN035
     FM240300 19012KT P6SM SCT025 BKN100=

USA.gov is the U.S. government's official web portal to all federal, state and local government web resources and services.